| time (UTC) | temp F | wind direction | speed knots | gust knots | rain 1hr in | rain 24hr in | rain mn in | humidity % | barometer mb |
| 20260507012728 | 62 | 225 | 1.7 | 3.5 | 0.00 | 0.00 | 0.00 | 74 | 1018.4 |
| 20260507005714 | 61 | 135 | 1.7 | 3.5 | 0.00 | 0.00 | 0.00 | 74 | 1018.4 |
| 20260507002658 | 61 | 112 | 2.6 | 3.5 | 0.00 | 0.00 | 0.00 | 75 | 1018.4 |
| 20260506235643 | 61 | 202 | 1.7 | 3.5 | 0.00 | 0.00 | 0.00 | 75 | 1018.4 |
| 20260506232628 | 62 | 112 | 1.7 | 3.5 | 0.00 | 0.00 | 0.00 | 72 | 1018.5 |
| 20260506225613 | 62 | 135 | 2.6 | 4.3 | 0.00 | 0.00 | 0.00 | 71 | 1018.7 |
| 20260506222558 | 62 | 158 | 1.7 | 4.3 | 0.00 | 0.00 | 0.00 | 73 | 1018.8 |
| 20260506215543 | 61 | 158 | 2.6 | 4.3 | 0.00 | 0.00 | 0.00 | 72 | 1018.8 |
| 20260506212528 | 62 | 90 | 1.7 | 4.3 | 0.00 | 0.00 | 0.00 | 67 | 1018.8 |
| 20260506205513 | 61 | 135 | 2.6 | 4.3 | 0.00 | 0.00 | 0.00 | 67 | 1018.9 |
| 20260506202444 | 62 | 112 | 1.7 | 3.5 | 0.00 | 0.00 | 0.00 | 65 | 1018.9 |
| 20260506195443 | 60 | 112 | 2.6 | 3.5 | 0.00 | 0.00 | 0.00 | 70 | 1018.9 |
| 20260506192444 | 60 | 338 | 0.9 | 2.6 | 0.00 | 0.00 | 0.00 | 69 | 1018.9 |
| 20260506185433 | 60 | 68 | 1.7 | 3.5 | 0.00 | 0.00 | 0.00 | 70 | 1018.8 |
| 20260506182428 | 58 | 180 | 0.0 | 2.6 | 0.00 | 0.00 | 0.00 | 73 | 1018.5 |
| 20260506175421 | 58 | 22 | 1.7 | 3.5 | 0.00 | 0.00 | 0.00 | 70 | 1018.4 |
| 20260506172407 | 57 | 270 | 1.7 | 3.5 | 0.00 | 0.00 | 0.00 | 72 | 1018.5 |
| 20260506165352 | 56 | 338 | 2.6 | 3.5 | 0.00 | 0.00 | 0.00 | 77 | 1018.4 |
| 20260506162336 | 55 | 0 | 0.9 | 4.3 | 0.00 | 0.00 | 0.00 | 79 | 1018.2 |
| 20260506155313 | 55 | 292 | 2.6 | 4.3 | 0.00 | 0.00 | 0.00 | 81 | 1018.3 |
| 20260506152306 | 55 | 0 | 0.9 | 4.3 | 0.00 | 0.00 | 0.00 | 85 | 1017.8 |
| 20260506145251 | 54 | 338 | 2.6 | 4.3 | 0.00 | 0.00 | 0.00 | 87 | 1017.7 |
| 20260506142237 | 53 | 0 | 0.9 | 2.6 | 0.00 | 0.00 | 0.00 | 91 | 1017.4 |
| 20260506135236 | 52 | 22 | 0.0 | 1.7 | 0.00 | 0.00 | 0.00 | 95 | 1016.9 |
| 20260506132232 | 51 | 315 | 0.0 | 0.0 | 0.00 | 0.00 | 0.00 | 98 | 1016.7 |
| 20260506125216 | 51 | 270 | 0.0 | 0.0 | 0.00 | 0.00 | 0.00 | 99 | 1016.6 |
| 20260506122135 | 51 | 270 | 0.0 | 0.9 | 0.00 | 0.00 | 0.00 | 99 | 1016.4 |
| 20260506115120 | 52 | 22 | 0.0 | 1.7 | 0.00 | 0.00 | 0.00 | 99 | 1016.2 |
| 20260506112042 | 52 | 315 | 0.0 | 0.0 | 0.00 | 0.00 | 0.00 | 99 | 1015.7 |
| 20260506105011 | 51 | 270 | 0.0 | 0.0 | 0.00 | 0.00 | 0.00 | 99 | 1015.7 |
| 20260506102002 | 51 | 315 | 0.0 | 0.0 | 0.00 | 0.00 | 0.00 | 99 | 1015.6 |
| 20260506094942 | 51 | 270 | 0.0 | 0.0 | 0.00 | 0.00 | 0.00 | 99 | 1015.3 |
| 20260506091927 | 52 | 270 | 0.0 | 0.0 | 0.00 | 0.00 | 0.00 | 99 | 1015.1 |
| 20260506084911 | 52 | 338 | 0.0 | 0.0 | 0.00 | 0.00 | 0.00 | 99 | 1015.0 |
| 20260506081912 | 53 | 338 | 0.0 | 0.0 | 0.00 | 0.00 | 0.00 | 99 | 1014.7 |
| 20260506071742 | 54 | 22 | 0.0 | 0.0 | 0.00 | 0.00 | 0.00 | 96 | 1014.0 |
| 20260506061712 | 56 | 135 | 1.7 | 3.5 | 0.00 | 0.00 | 0.00 | 91 | 1013.5 |
| 20260506044548 | 59 | 158 | 1.7 | 1.7 | 0.00 | 0.00 | 0.00 | 84 | 1012.9 |
| 20260506041532 | 0 | 135 | 1.7 | 3.5 | 0.00 | 0.00 | 0.00 | 1012.6 | |
| 20260506034517 | 61 | 180 | 1.7 | 3.5 | 0.00 | 0.00 | 0.00 | 75 | 1012.3 |
| 20260506031502 | 63 | 135 | 1.7 | 2.6 | 0.00 | 0.00 | 0.00 | 69 | 1012.2 |
| 20260506024448 | 65 | 22 | 0.9 | 3.5 | 0.00 | 0.00 | 0.00 | 62 | 1012.0 |
| 20260506021432 | 0 | 202 | 1.7 | 1.7 | 0.00 | 0.00 | 0.00 | 1012.0 |